Terminal Aerodrome Forecast
Issued by NWS Caribou, ME

Home | Current Version | Previous Version | Text Only | Print | Product List | Glossary On
Versions: 1 2 3 4 5 6 7 8 9 10 11 12 13
000
FTUS41 KCAR 270546 CCA
TAFCAR
TAF COR
KCAR 270546Z 2706/2806 02008KT P6SM OVC015
     FM270900 02008KT P6SM SCT070
     FM272000 09004KT P6SM SCT050=

USA.gov is the U.S. government's official web portal to all federal, state and local government web resources and services.